sensor_id;sensor_type;location;lat;lon;timestamp;temperature;humidity
14277;DHT22;7222;57.346;12.150;2023-05-06T00:01:18;4.30;1.00
14277;DHT22;7222;57.346;12.150;2023-05-06T00:03:46;4.20;1.00
14277;DHT22;7222;57.346;12.150;2023-05-06T00:06:12;4.20;1.00
14277;DHT22;7222;57.346;12.150;2023-05-06T00:08:39;4.20;1.00
14277;DHT22;7222;57.346;12.150;2023-05-06T00:11:06;4.20;1.00
14277;DHT22;7222;57.346;12.150;2023-05-06T00:13:34;4.20;1.00
14277;DHT22;7222;57.346;12.150;2023-05-06T00:16:02;4.10;1.00
14277;DHT22;7222;57.346;12.150;2023-05-06T00:18:28;4.10;1.00
14277;DHT22;7222;57.346;12.150;2023-05-06T00:20:55;4.00;1.00
14277;DHT22;7222;57.346;12.150;2023-05-06T00:23:22;3.90;1.00
14277;DHT22;7222;57.346;12.150;2023-05-06T00:25:49;3.90;1.00
14277;DHT22;7222;57.346;12.150;2023-05-06T00:28:16;3.80;1.00
14277;DHT22;7222;57.346;12.150;2023-05-06T00:30:44;3.80;1.00
14277;DHT22;7222;57.346;12.150;2023-05-06T00:33:11;3.80;1.00
14277;DHT22;7222;57.346;12.150;2023-05-06T00:35:38;3.80;1.00
14277;DHT22;7222;57.346;12.150;2023-05-06T00:38:07;3.70;1.00
14277;DHT22;7222;57.346;12.150;2023-05-06T00:40:34;3.70;1.00
14277;DHT22;7222;57.346;12.150;2023-05-06T00:43:01;3.70;1.00
14277;DHT22;7222;57.346;12.150;2023-05-06T00:45:28;3.60;1.00
14277;DHT22;7222;57.346;12.150;2023-05-06T00:47:57;3.60;1.00
14277;DHT22;7222;57.346;12.150;2023-05-06T00:50:26;3.60;1.00
14277;DHT22;7222;57.346;12.150;2023-05-06T00:52:55;3.60;1.00
14277;DHT22;7222;57.346;12.150;2023-05-06T00:55:22;3.60;1.00
14277;DHT22;7222;57.346;12.150;2023-05-06T00:57:50;3.40;1.00
14277;DHT22;7222;57.346;12.150;2023-05-06T01:00:18;3.40;1.00
14277;DHT22;7222;57.346;12.150;2023-05-06T01:02:46;3.40;1.00
14277;DHT22;7222;57.346;12.150;2023-05-06T01:05:15;3.40;1.00
14277;DHT22;7222;57.346;12.150;2023-05-06T01:07:46;3.40;1.00
14277;DHT22;7222;57.346;12.150;2023-05-06T01:10:23;3.30;1.00
14277;DHT22;7222;57.346;12.150;2023-05-06T01:12:57;3.30;1.00
14277;DHT22;7222;57.346;12.150;2023-05-06T01:15:32;3.20;1.00
14277;DHT22;7222;57.346;12.150;2023-05-06T01:18:02;3.20;1.00
14277;DHT22;7222;57.346;12.150;2023-05-06T01:20:32;3.20;1.00
14277;DHT22;7222;57.346;12.150;2023-05-06T01:23:00;3.20;1.00
14277;DHT22;7222;57.346;12.150;2023-05-06T01:25:29;3.10;1.00
14277;DHT22;7222;57.346;12.150;2023-05-06T01:27:58;3.10;1.00
14277;DHT22;7222;57.346;12.150;2023-05-06T01:30:29;3.10;10.10
14277;DHT22;7222;57.346;12.150;2023-05-06T01:33:04;3.00;1.00
14277;DHT22;7222;57.346;12.150;2023-05-06T01:35:42;3.10;1.00
14277;DHT22;7222;57.346;12.150;2023-05-06T01:38:16;2.90;1.00
14277;DHT22;7222;57.346;12.150;2023-05-06T01:40:50;2.90;1.00
14277;DHT22;7222;57.346;12.150;2023-05-06T01:43:21;2.90;1.00
14277;DHT22;7222;57.346;12.150;2023-05-06T01:45:51;2.80;74.30
14277;DHT22;7222;57.346;12.150;2023-05-06T01:48:21;2.80;1.00
14277;DHT22;7222;57.346;12.150;2023-05-06T01:50:49;2.80;27.80
14277;DHT22;7222;57.346;12.150;2023-05-06T01:53:16;2.70;42.60
14277;DHT22;7222;57.346;12.150;2023-05-06T01:55:43;2.80;1.00
14277;DHT22;7222;57.346;12.150;2023-05-06T01:58:11;2.70;99.90
14277;DHT22;7222;57.346;12.150;2023-05-06T02:00:38;2.60;1.50
14277;DHT22;7222;57.346;12.150;2023-05-06T02:03:05;2.60;27.50
14277;DHT22;7222;57.346;12.150;2023-05-06T02:05:32;2.60;90.00
14277;DHT22;7222;57.346;12.150;2023-05-06T02:07:59;2.60;99.90
14277;DHT22;7222;57.346;12.150;2023-05-06T02:10:26;2.60;21.30
14277;DHT22;7222;57.346;12.150;2023-05-06T02:12:53;2.60;1.00
14277;DHT22;7222;57.346;12.150;2023-05-06T02:15:21;2.60;1.00
14277;DHT22;7222;57.346;12.150;2023-05-06T02:17:48;2.60;99.90
14277;DHT22;7222;57.346;12.150;2023-05-06T02:20:15;2.50;71.20
14277;DHT22;7222;57.346;12.150;2023-05-06T02:22:42;2.50;59.00
14277;DHT22;7222;57.346;12.150;2023-05-06T02:25:09;2.50;68.10
14277;DHT22;7222;57.346;12.150;2023-05-06T02:27:35;2.40;42.00
14277;DHT22;7222;57.346;12.150;2023-05-06T02:30:03;2.40;73.00
14277;DHT22;7222;57.346;12.150;2023-05-06T02:32:32;2.40;99.90
14277;DHT22;7222;57.346;12.150;2023-05-06T02:34:59;2.40;51.80
14277;DHT22;7222;57.346;12.150;2023-05-06T02:37:26;2.30;99.90
14277;DHT22;7222;57.346;12.150;2023-05-06T02:39:52;2.30;99.90
14277;DHT22;7222;57.346;12.150;2023-05-06T02:42:19;2.30;8.50
14277;DHT22;7222;57.346;12.150;2023-05-06T02:44:46;2.30;99.90
14277;DHT22;7222;57.346;12.150;2023-05-06T02:47:13;2.30;99.90
14277;DHT22;7222;57.346;12.150;2023-05-06T02:49:42;2.30;74.30
14277;DHT22;7222;57.346;12.150;2023-05-06T02:52:08;2.20;99.90
14277;DHT22;7222;57.346;12.150;2023-05-06T02:54:35;2.20;92.70
14277;DHT22;7222;57.346;12.150;2023-05-06T02:57:02;2.20;99.90
14277;DHT22;7222;57.346;12.150;2023-05-06T02:59:29;2.20;1.00
14277;DHT22;7222;57.346;12.150;2023-05-06T03:01:56;2.20;99.90
14277;DHT22;7222;57.346;12.150;2023-05-06T03:04:23;2.20;99.90
14277;DHT22;7222;57.346;12.150;2023-05-06T03:06:52;2.20;75.30
14277;DHT22;7222;57.346;12.150;2023-05-06T03:09:20;2.20;48.40
14277;DHT22;7222;57.346;12.150;2023-05-06T03:11:48;2.10;99.90
14277;DHT22;7222;57.346;12.150;2023-05-06T03:14:15;2.10;63.80
14277;DHT22;7222;57.346;12.150;2023-05-06T03:16:42;2.20;99.90
14277;DHT22;7222;57.346;12.150;2023-05-06T03:19:09;2.20;99.90
14277;DHT22;7222;57.346;12.150;2023-05-06T03:21:37;2.20;99.90
14277;DHT22;7222;57.346;12.150;2023-05-06T03:24:06;2.20;99.90
14277;DHT22;7222;57.346;12.150;2023-05-06T03:26:33;2.10;99.90
14277;DHT22;7222;57.346;12.150;2023-05-06T03:29:00;2.10;99.90
14277;DHT22;7222;57.346;12.150;2023-05-06T03:31:27;2.10;99.90
14277;DHT22;7222;57.346;12.150;2023-05-06T03:33:53;2.10;99.90
14277;DHT22;7222;57.346;12.150;2023-05-06T03:36:20;2.10;99.90
14277;DHT22;7222;57.346;12.150;2023-05-06T03:38:48;2.10;99.90
14277;DHT22;7222;57.346;12.150;2023-05-06T03:41:17;2.10;99.90
14277;DHT22;7222;57.346;12.150;2023-05-06T03:43:46;2.10;99.90
14277;DHT22;7222;57.346;12.150;2023-05-06T03:46:13;2.20;99.90
14277;DHT22;7222;57.346;12.150;2023-05-06T03:48:40;2.10;99.90
14277;DHT22;7222;57.346;12.150;2023-05-06T03:51:07;2.10;92.20
14277;DHT22;7222;57.346;12.150;2023-05-06T03:53:34;2.20;99.90
14277;DHT22;7222;57.346;12.150;2023-05-06T03:56:01;2.20;99.90
14277;DHT22;7222;57.346;12.150;2023-05-06T03:58:29;2.20;99.90
14277;DHT22;7222;57.346;12.150;2023-05-06T04:00:56;2.30;99.90
14277;DHT22;7222;57.346;12.150;2023-05-06T04:03:25;2.30;99.90
14277;DHT22;7222;57.346;12.150;2023-05-06T04:05:52;2.30;99.90
14277;DHT22;7222;57.346;12.150;2023-05-06T04:08:19;2.30;99.90
14277;DHT22;7222;57.346;12.150;2023-05-06T04:10:46;2.40;99.90
14277;DHT22;7222;57.346;12.150;2023-05-06T04:13:12;2.40;99.90
14277;DHT22;7222;57.346;12.150;2023-05-06T04:15:41;2.40;99.90
14277;DHT22;7222;57.346;12.150;2023-05-06T04:18:08;2.50;99.90
14277;DHT22;7222;57.346;12.150;2023-05-06T04:20:35;2.50;99.90
14277;DHT22;7222;57.346;12.150;2023-05-06T04:23:02;2.60;99.90
14277;DHT22;7222;57.346;12.150;2023-05-06T04:25:29;2.60;99.90
14277;DHT22;7222;57.346;12.150;2023-05-06T04:27:57;2.70;1.00
14277;DHT22;7222;57.346;12.150;2023-05-06T04:30:24;2.70;99.90
14277;DHT22;7222;57.346;12.150;2023-05-06T04:32:53;2.80;99.90
14277;DHT22;7222;57.346;12.150;2023-05-06T04:35:20;2.80;99.90
14277;DHT22;7222;57.346;12.150;2023-05-06T04:37:47;2.90;99.90
14277;DHT22;7222;57.346;12.150;2023-05-06T04:40:15;2.90;99.90
14277;DHT22;7222;57.346;12.150;2023-05-06T04:42:42;3.00;99.90
14277;DHT22;7222;57.346;12.150;2023-05-06T04:45:10;3.00;99.90
14277;DHT22;7222;57.346;12.150;2023-05-06T04:47:37;3.10;99.90
14277;DHT22;7222;57.346;12.150;2023-05-06T04:50:06;3.10;99.90
14277;DHT22;7222;57.346;12.150;2023-05-06T04:52:33;3.20;99.90
14277;DHT22;7222;57.346;12.150;2023-05-06T04:55:00;3.20;99.90
14277;DHT22;7222;57.346;12.150;2023-05-06T04:57:27;3.30;99.90
14277;DHT22;7222;57.346;12.150;2023-05-06T04:59:54;3.30;99.90
14277;DHT22;7222;57.346;12.150;2023-05-06T05:02:21;3.40;99.90
14277;DHT22;7222;57.346;12.150;2023-05-06T05:04:47;3.60;1.00
14277;DHT22;7222;57.346;12.150;2023-05-06T05:07:16;3.60;99.90
14277;DHT22;7222;57.346;12.150;2023-05-06T05:09:43;3.60;99.90
14277;DHT22;7222;57.346;12.150;2023-05-06T05:12:10;3.70;99.90
14277;DHT22;7222;57.346;12.150;2023-05-06T05:14:37;3.70;99.90
14277;DHT22;7222;57.346;12.150;2023-05-06T05:17:04;3.80;99.90
14277;DHT22;7222;57.346;12.150;2023-05-06T05:19:31;3.80;99.90
14277;DHT22;7222;57.346;12.150;2023-05-06T05:21:57;3.80;99.90
14277;DHT22;7222;57.346;12.150;2023-05-06T05:24:26;3.90;99.90
14277;DHT22;7222;57.346;12.150;2023-05-06T05:26:52;4.00;99.90
14277;DHT22;7222;57.346;12.150;2023-05-06T05:29:19;4.10;99.90
14277;DHT22;7222;57.346;12.150;2023-05-06T05:31:46;4.20;99.90
14277;DHT22;7222;57.346;12.150;2023-05-06T05:34:13;4.30;99.90
14277;DHT22;7222;57.346;12.150;2023-05-06T05:36:40;4.40;99.90
14277;DHT22;7222;57.346;12.150;2023-05-06T05:39:07;4.50;95.60
14277;DHT22;7222;57.346;12.150;2023-05-06T05:41:35;4.60;72.50
14277;DHT22;7222;57.346;12.150;2023-05-06T05:44:02;4.70;99.90
14277;DHT22;7222;57.346;12.150;2023-05-06T05:46:29;4.70;34.00
14277;DHT22;7222;57.346;12.150;2023-05-06T05:48:56;4.80;98.10
14277;DHT22;7222;57.346;12.150;2023-05-06T05:51:23;4.90;8.50
14277;DHT22;7222;57.346;12.150;2023-05-06T05:53:50;5.00;99.90
14277;DHT22;7222;57.346;12.150;2023-05-06T05:56:17;5.10;87.60
14277;DHT22;7222;57.346;12.150;2023-05-06T05:58:45;5.20;97.30
14277;DHT22;7222;57.346;12.150;2023-05-06T06:01:12;5.40;12.10
14277;DHT22;7222;57.346;12.150;2023-05-06T06:03:40;5.50;20.90
14277;DHT22;7222;57.346;12.150;2023-05-06T06:06:07;5.60;62.00
14277;DHT22;7222;57.346;12.150;2023-05-06T06:08:35;5.70;1.00
14277;DHT22;7222;57.346;12.150;2023-05-06T06:11:02;5.90;18.80
14277;DHT22;7222;57.346;12.150;2023-05-06T06:13:30;6.00;1.00
14277;DHT22;7222;57.346;12.150;2023-05-06T06:15:59;6.20;1.00
14277;DHT22;7222;57.346;12.150;2023-05-06T06:18:26;6.40;1.00
14277;DHT22;7222;57.346;12.150;2023-05-06T06:20:53;6.60;1.00
14277;DHT22;7222;57.346;12.150;2023-05-06T06:23:20;6.80;1.00
14277;DHT22;7222;57.346;12.150;2023-05-06T06:25:47;6.90;1.00
14277;DHT22;7222;57.346;12.150;2023-05-06T06:28:14;7.20;1.00
14277;DHT22;7222;57.346;12.150;2023-05-06T06:30:40;7.30;1.00
14277;DHT22;7222;57.346;12.150;2023-05-06T06:33:09;7.60;1.00
14277;DHT22;7222;57.346;12.150;2023-05-06T06:35:36;7.90;1.00
14277;DHT22;7222;57.346;12.150;2023-05-06T06:38:02;8.00;1.00
14277;DHT22;7222;57.346;12.150;2023-05-06T06:40:29;8.20;1.00
14277;DHT22;7222;57.346;12.150;2023-05-06T06:42:56;8.50;1.00
14277;DHT22;7222;57.346;12.150;2023-05-06T06:45:23;8.60;1.00
14277;DHT22;7222;57.346;12.150;2023-05-06T06:47:50;8.60;1.00
14277;DHT22;7222;57.346;12.150;2023-05-06T06:50:18;8.60;1.00
14277;DHT22;7222;57.346;12.150;2023-05-06T06:52:45;9.00;1.00
14277;DHT22;7222;57.346;12.150;2023-05-06T06:55:12;9.00;1.00
14277;DHT22;7222;57.346;12.150;2023-05-06T06:57:40;9.40;1.00
14277;DHT22;7222;57.346;12.150;2023-05-06T07:00:08;9.40;1.00
14277;DHT22;7222;57.346;12.150;2023-05-06T07:02:35;9.90;1.00
14277;DHT22;7222;57.346;12.150;2023-05-06T07:05:02;9.60;1.00
14277;DHT22;7222;57.346;12.150;2023-05-06T07:07:30;9.80;1.00
14277;DHT22;7222;57.346;12.150;2023-05-06T07:09:57;10.30;1.00
14277;DHT22;7222;57.346;12.150;2023-05-06T07:12:24;10.50;1.00
14277;DHT22;7222;57.346;12.150;2023-05-06T07:14:51;10.50;1.00
14277;DHT22;7222;57.346;12.150;2023-05-06T07:17:18;10.60;1.00
14277;DHT22;7222;57.346;12.150;2023-05-06T07:19:45;11.00;1.00
14277;DHT22;7222;57.346;12.150;2023-05-06T07:22:12;11.00;1.00
14277;DHT22;7222;57.346;12.150;2023-05-06T07:24:40;11.50;1.00
14277;DHT22;7222;57.346;12.150;2023-05-06T07:27:07;11.30;1.00
14277;DHT22;7222;57.346;12.150;2023-05-06T07:29:34;11.40;1.00
14277;DHT22;7222;57.346;12.150;2023-05-06T07:32:02;11.30;1.00
14277;DHT22;7222;57.346;12.150;2023-05-06T07:34:29;12.00;1.00
14277;DHT22;7222;57.346;12.150;2023-05-06T07:36:55;12.00;1.00
14277;DHT22;7222;57.346;12.150;2023-05-06T07:39:23;11.40;1.00
14277;DHT22;7222;57.346;12.150;2023-05-06T07:41:51;12.20;1.00
14277;DHT22;7222;57.346;12.150;2023-05-06T07:44:19;12.90;1.00
14277;DHT22;7222;57.346;12.150;2023-05-06T07:46:45;12.60;1.00
14277;DHT22;7222;57.346;12.150;2023-05-06T07:49:12;13.00;1.00
14277;DHT22;7222;57.346;12.150;2023-05-06T07:51:41;12.90;1.00
14277;DHT22;7222;57.346;12.150;2023-05-06T07:54:08;13.20;1.00
14277;DHT22;7222;57.346;12.150;2023-05-06T07:56:35;13.40;1.00
14277;DHT22;7222;57.346;12.150;2023-05-06T07:59:04;13.50;1.00
14277;DHT22;7222;57.346;12.150;2023-05-06T08:01:31;13.60;1.00
14277;DHT22;7222;57.346;12.150;2023-05-06T08:03:58;13.90;1.00
14277;DHT22;7222;57.346;12.150;2023-05-06T08:06:25;14.30;1.00
14277;DHT22;7222;57.346;12.150;2023-05-06T08:08:52;14.20;1.00
14277;DHT22;7222;57.346;12.150;2023-05-06T08:11:19;14.50;1.00
14277;DHT22;7222;57.346;12.150;2023-05-06T08:13:46;14.40;1.00
14277;DHT22;7222;57.346;12.150;2023-05-06T08:16:15;14.90;1.00
14277;DHT22;7222;57.346;12.150;2023-05-06T08:18:42;15.30;1.00
14277;DHT22;7222;57.346;12.150;2023-05-06T08:21:08;15.40;1.00
14277;DHT22;7222;57.346;12.150;2023-05-06T08:23:35;15.10;1.00
14277;DHT22;7222;57.346;12.150;2023-05-06T08:26:03;15.50;1.00
14277;DHT22;7222;57.346;12.150;2023-05-06T08:28:30;16.20;1.00
14277;DHT22;7222;57.346;12.150;2023-05-06T08:30:57;15.90;1.00
14277;DHT22;7222;57.346;12.150;2023-05-06T08:33:27;15.80;1.00
14277;DHT22;7222;57.346;12.150;2023-05-06T08:35:57;16.20;1.00
14277;DHT22;7222;57.346;12.150;2023-05-06T08:38:24;16.40;1.00
14277;DHT22;7222;57.346;12.150;2023-05-06T08:40:53;16.00;1.00
14277;DHT22;7222;57.346;12.150;2023-05-06T08:43:20;17.00;1.00
14277;DHT22;7222;57.346;12.150;2023-05-06T08:45:52;17.30;1.00
14277;DHT22;7222;57.346;12.150;2023-05-06T08:48:20;17.50;1.00
14277;DHT22;7222;57.346;12.150;2023-05-06T08:50:52;17.60;1.00
14277;DHT22;7222;57.346;12.150;2023-05-06T08:53:20;17.50;1.00
14277;DHT22;7222;57.346;12.150;2023-05-06T08:55:48;17.50;1.00
14277;DHT22;7222;57.346;12.150;2023-05-06T08:58:17;17.60;1.00
14277;DHT22;7222;57.346;12.150;2023-05-06T09:00:45;17.50;1.00
14277;DHT22;7222;57.346;12.150;2023-05-06T09:03:13;18.10;1.00
14277;DHT22;7222;57.346;12.150;2023-05-06T09:05:40;18.60;1.00
14277;DHT22;7222;57.346;12.150;2023-05-06T09:08:09;19.00;1.00
14277;DHT22;7222;57.346;12.150;2023-05-06T09:10:41;19.00;1.00
14277;DHT22;7222;57.346;12.150;2023-05-06T09:13:12;19.30;1.00
14277;DHT22;7222;57.346;12.150;2023-05-06T09:15:40;19.70;1.00
14277;DHT22;7222;57.346;12.150;2023-05-06T09:18:08;19.60;1.00
14277;DHT22;7222;57.346;12.150;2023-05-06T09:20:35;20.00;1.00
14277;DHT22;7222;57.346;12.150;2023-05-06T09:23:07;19.50;1.00
14277;DHT22;7222;57.346;12.150;2023-05-06T09:25:36;20.40;1.00
14277;DHT22;7222;57.346;12.150;2023-05-06T09:28:04;20.20;1.00
14277;DHT22;7222;57.346;12.150;2023-05-06T09:30:31;20.80;1.00
14277;DHT22;7222;57.346;12.150;2023-05-06T09:32:59;20.70;1.00
14277;DHT22;7222;57.346;12.150;2023-05-06T09:35:35;20.80;1.00
14277;DHT22;7222;57.346;12.150;2023-05-06T09:38:03;20.00;99.90
14277;DHT22;7222;57.346;12.150;2023-05-06T09:40:30;20.90;1.00
14277;DHT22;7222;57.346;12.150;2023-05-06T09:42:59;21.60;99.90
14277;DHT22;7222;57.346;12.150;2023-05-06T09:45:27;21.90;99.90
14277;DHT22;7222;57.346;12.150;2023-05-06T09:47:55;21.90;99.90
14277;DHT22;7222;57.346;12.150;2023-05-06T09:50:23;20.40;99.90
14277;DHT22;7222;57.346;12.150;2023-05-06T09:52:51;21.20;99.90
14277;DHT22;7222;57.346;12.150;2023-05-06T09:55:19;21.90;99.90
14277;DHT22;7222;57.346;12.150;2023-05-06T09:57:46;21.20;99.90
14277;DHT22;7222;57.346;12.150;2023-05-06T10:00:16;22.00;99.90
14277;DHT22;7222;57.346;12.150;2023-05-06T10:02:43;22.40;99.90
14277;DHT22;7222;57.346;12.150;2023-05-06T10:05:12;21.80;99.90
14277;DHT22;7222;57.346;12.150;2023-05-06T10:07:40;22.20;99.90
14277;DHT22;7222;57.346;12.150;2023-05-06T10:10:09;23.20;99.90
14277;DHT22;7222;57.346;12.150;2023-05-06T10:12:38;23.70;99.90
14277;DHT22;7222;57.346;12.150;2023-05-06T10:15:06;22.10;99.90
14277;DHT22;7222;57.346;12.150;2023-05-06T10:17:38;23.00;99.90
14277;DHT22;7222;57.346;12.150;2023-05-06T10:20:08;23.50;99.90
14277;DHT22;7222;57.346;12.150;2023-05-06T10:22:46;23.80;99.90
14277;DHT22;7222;57.346;12.150;2023-05-06T10:25:22;23.90;99.90
14277;DHT22;7222;57.346;12.150;2023-05-06T10:27:55;24.60;99.90
14277;DHT22;7222;57.346;12.150;2023-05-06T10:30:23;24.40;99.90
14277;DHT22;7222;57.346;12.150;2023-05-06T10:32:53;24.40;99.90
14277;DHT22;7222;57.346;12.150;2023-05-06T10:35:43;24.70;99.90
14277;DHT22;7222;57.346;12.150;2023-05-06T10:38:15;24.10;99.90
14277;DHT22;7222;57.346;12.150;2023-05-06T10:40:44;23.90;99.90
14277;DHT22;7222;57.346;12.150;2023-05-06T10:43:26;22.80;99.90
14277;DHT22;7222;57.346;12.150;2023-05-06T10:46:01;19.60;99.90
14277;DHT22;7222;57.346;12.150;2023-05-06T10:48:30;22.00;99.90
14277;DHT22;7222;57.346;12.150;2023-05-06T10:51:22;23.30;99.90
14277;DHT22;7222;57.346;12.150;2023-05-06T10:54:00;24.30;99.90
14277;DHT22;7222;57.346;12.150;2023-05-06T10:56:32;25.10;99.90
14277;DHT22;7222;57.346;12.150;2023-05-06T10:59:04;25.00;99.90
14277;DHT22;7222;57.346;12.150;2023-05-06T11:01:33;25.70;99.90
14277;DHT22;7222;57.346;12.150;2023-05-06T11:04:06;25.80;99.90
14277;DHT22;7222;57.346;12.150;2023-05-06T11:06:39;25.20;99.90
14277;DHT22;7222;57.346;12.150;2023-05-06T11:09:15;24.20;99.90
14277;DHT22;7222;57.346;12.150;2023-05-06T11:11:47;24.80;99.90
14277;DHT22;7222;57.346;12.150;2023-05-06T11:14:23;23.80;99.90
14277;DHT22;7222;57.346;12.150;2023-05-06T11:16:52;19.90;99.90
14277;DHT22;7222;57.346;12.150;2023-05-06T11:19:22;22.20;99.90
14277;DHT22;7222;57.346;12.150;2023-05-06T11:21:49;21.00;99.90
14277;DHT22;7222;57.346;12.150;2023-05-06T11:24:37;19.50;99.90
14277;DHT22;7222;57.346;12.150;2023-05-06T11:27:04;22.20;99.90
14277;DHT22;7222;57.346;12.150;2023-05-06T11:29:32;22.80;99.90
14277;DHT22;7222;57.346;12.150;2023-05-06T11:31:58;23.00;99.90
14277;DHT22;7222;57.346;12.150;2023-05-06T11:34:28;22.20;99.90
14277;DHT22;7222;57.346;12.150;2023-05-06T11:37:00;23.60;99.90
14277;DHT22;7222;57.346;12.150;2023-05-06T11:39:28;18.60;99.90
14277;DHT22;7222;57.346;12.150;2023-05-06T11:41:57;18.90;99.90
14277;DHT22;7222;57.346;12.150;2023-05-06T11:44:27;17.50;99.90
14277;DHT22;7222;57.346;12.150;2023-05-06T11:47:01;19.80;99.90
14277;DHT22;7222;57.346;12.150;2023-05-06T11:49:34;23.60;99.90
14277;DHT22;7222;57.346;12.150;2023-05-06T11:52:02;24.40;99.90
14277;DHT22;7222;57.346;12.150;2023-05-06T11:54:33;25.70;99.90
14277;DHT22;7222;57.346;12.150;2023-05-06T11:57:00;20.90;99.90
14277;DHT22;7222;57.346;12.150;2023-05-06T11:59:30;19.80;99.90
14277;DHT22;7222;57.346;12.150;2023-05-06T12:01:58;17.20;99.90
14277;DHT22;7222;57.346;12.150;2023-05-06T12:04:25;22.00;99.90
14277;DHT22;7222;57.346;12.150;2023-05-06T12:06:56;24.20;99.90
14277;DHT22;7222;57.346;12.150;2023-05-06T12:09:23;23.60;99.90
14277;DHT22;7222;57.346;12.150;2023-05-06T12:11:51;24.80;99.90
14277;DHT22;7222;57.346;12.150;2023-05-06T12:14:19;25.80;99.90
14277;DHT22;7222;57.346;12.150;2023-05-06T12:16:47;27.00;99.90
14277;DHT22;7222;57.346;12.150;2023-05-06T12:19:15;27.50;99.90
14277;DHT22;7222;57.346;12.150;2023-05-06T12:21:43;27.30;99.90
14277;DHT22;7222;57.346;12.150;2023-05-06T12:24:12;23.20;99.90
14277;DHT22;7222;57.346;12.150;2023-05-06T12:26:43;19.20;99.90
14277;DHT22;7222;57.346;12.150;2023-05-06T12:29:12;22.10;99.90
14277;DHT22;7222;57.346;12.150;2023-05-06T12:31:40;25.10;99.90
14277;DHT22;7222;57.346;12.150;2023-05-06T12:34:09;26.20;99.90
14277;DHT22;7222;57.346;12.150;2023-05-06T12:36:41;27.20;99.90
14277;DHT22;7222;57.346;12.150;2023-05-06T12:39:08;22.10;99.90
14277;DHT22;7222;57.346;12.150;2023-05-06T12:41:40;23.60;99.90
14277;DHT22;7222;57.346;12.150;2023-05-06T12:44:30;26.00;99.90
14277;DHT22;7222;57.346;12.150;2023-05-06T12:46:58;27.50;99.90
14277;DHT22;7222;57.346;12.150;2023-05-06T12:49:26;27.70;99.90
14277;DHT22;7222;57.346;12.150;2023-05-06T12:52:06;28.40;99.90
14277;DHT22;7222;57.346;12.150;2023-05-06T12:54:33;28.30;99.90
14277;DHT22;7222;57.346;12.150;2023-05-06T12:57:02;28.20;99.90
14277;DHT22;7222;57.346;12.150;2023-05-06T12:59:30;28.70;99.90
14277;DHT22;7222;57.346;12.150;2023-05-06T13:01:57;23.40;99.90
14277;DHT22;7222;57.346;12.150;2023-05-06T13:04:25;18.40;99.90
14277;DHT22;7222;57.346;12.150;2023-05-06T13:06:52;22.00;99.90
14277;DHT22;7222;57.346;12.150;2023-05-06T13:09:20;21.70;99.90
14277;DHT22;7222;57.346;12.150;2023-05-06T13:11:47;18.70;99.90
14277;DHT22;7222;57.346;12.150;2023-05-06T13:14:15;23.10;99.90
14277;DHT22;7222;57.346;12.150;2023-05-06T13:16:42;26.00;99.90
14277;DHT22;7222;57.346;12.150;2023-05-06T13:19:09;27.20;99.90
14277;DHT22;7222;57.346;12.150;2023-05-06T13:21:37;25.60;99.90
14277;DHT22;7222;57.346;12.150;2023-05-06T13:24:05;26.60;99.90
14277;DHT22;7222;57.346;12.150;2023-05-06T13:26:32;27.90;99.90
14277;DHT22;7222;57.346;12.150;2023-05-06T13:28:59;27.60;99.90
14277;DHT22;7222;57.346;12.150;2023-05-06T13:31:27;26.80;99.90
14277;DHT22;7222;57.346;12.150;2023-05-06T13:33:54;25.10;99.90
14277;DHT22;7222;57.346;12.150;2023-05-06T13:36:21;23.60;99.90
14277;DHT22;7222;57.346;12.150;2023-05-06T13:38:48;23.70;99.90
14277;DHT22;7222;57.346;12.150;2023-05-06T13:41:15;22.70;99.90
14277;DHT22;7222;57.346;12.150;2023-05-06T13:43:42;24.10;99.90
14277;DHT22;7222;57.346;12.150;2023-05-06T13:46:09;21.50;99.90
14277;DHT22;7222;57.346;12.150;2023-05-06T13:48:37;18.30;99.90
14277;DHT22;7222;57.346;12.150;2023-05-06T13:51:04;17.60;99.90
14277;DHT22;7222;57.346;12.150;2023-05-06T13:53:32;16.60;1.00
14277;DHT22;7222;57.346;12.150;2023-05-06T13:55:59;17.00;1.00
14277;DHT22;7222;57.346;12.150;2023-05-06T13:58:26;17.30;1.00
14277;DHT22;7222;57.346;12.150;2023-05-06T14:00:53;19.40;1.00
14277;DHT22;7222;57.346;12.150;2023-05-06T14:03:20;17.30;1.00
14277;DHT22;7222;57.346;12.150;2023-05-06T14:05:48;16.70;1.00
14277;DHT22;7222;57.346;12.150;2023-05-06T14:08:16;16.70;1.00
14277;DHT22;7222;57.346;12.150;2023-05-06T14:10:43;17.70;1.00
14277;DHT22;7222;57.346;12.150;2023-05-06T14:13:10;18.30;1.00
14277;DHT22;7222;57.346;12.150;2023-05-06T14:15:37;17.90;1.00
14277;DHT22;7222;57.346;12.150;2023-05-06T14:18:04;18.10;1.00
14277;DHT22;7222;57.346;12.150;2023-05-06T14:20:31;15.80;1.00
14277;DHT22;7222;57.346;12.150;2023-05-06T14:23:03;16.10;1.00
14277;DHT22;7222;57.346;12.150;2023-05-06T14:25:30;18.10;1.00
14277;DHT22;7222;57.346;12.150;2023-05-06T14:27:57;16.20;1.00
14277;DHT22;7222;57.346;12.150;2023-05-06T14:30:24;15.60;1.00
14277;DHT22;7222;57.346;12.150;2023-05-06T14:32:51;17.50;1.00
14277;DHT22;7222;57.346;12.150;2023-05-06T14:35:18;18.20;1.00
14277;DHT22;7222;57.346;12.150;2023-05-06T14:37:45;16.70;1.00
14277;DHT22;7222;57.346;12.150;2023-05-06T14:40:14;17.30;1.00
14277;DHT22;7222;57.346;12.150;2023-05-06T14:42:41;18.70;1.00
14277;DHT22;7222;57.346;12.150;2023-05-06T14:45:09;20.20;1.00
14277;DHT22;7222;57.346;12.150;2023-05-06T14:47:37;18.80;1.00
14277;DHT22;7222;57.346;12.150;2023-05-06T15:03:04;17.20;1.00
14277;DHT22;7222;57.346;12.150;2023-05-06T15:05:31;18.40;1.00
14277;DHT22;7222;57.346;12.150;2023-05-06T15:08:00;17.80;1.00
14277;DHT22;7222;57.346;12.150;2023-05-06T15:10:27;17.00;1.00
14277;DHT22;7222;57.346;12.150;2023-05-06T15:12:54;18.20;1.00
14277;DHT22;7222;57.346;12.150;2023-05-06T15:15:21;18.30;1.00
14277;DHT22;7222;57.346;12.150;2023-05-06T15:17:48;18.90;1.00
14277;DHT22;7222;57.346;12.150;2023-05-06T15:20:18;16.60;1.00
14277;DHT22;7222;57.346;12.150;2023-05-06T15:22:45;17.20;1.00
14277;DHT22;7222;57.346;12.150;2023-05-06T15:25:12;17.40;1.00
14277;DHT22;7222;57.346;12.150;2023-05-06T15:27:39;18.70;1.00
14277;DHT22;7222;57.346;12.150;2023-05-06T15:30:07;17.30;1.00
14277;DHT22;7222;57.346;12.150;2023-05-06T15:32:34;18.70;1.00
14277;DHT22;7222;57.346;12.150;2023-05-06T15:35:01;18.80;1.00
14277;DHT22;7222;57.346;12.150;2023-05-06T15:37:32;16.50;99.90
14277;DHT22;7222;57.346;12.150;2023-05-06T15:39:59;16.60;1.00
14277;DHT22;7222;57.346;12.150;2023-05-06T15:42:26;18.40;1.00
14277;DHT22;7222;57.346;12.150;2023-05-06T15:44:53;18.10;1.00
14277;DHT22;7222;57.346;12.150;2023-05-06T15:47:20;18.80;1.00
14277;DHT22;7222;57.346;12.150;2023-05-06T15:49:47;18.40;1.00
14277;DHT22;7222;57.346;12.150;2023-05-06T15:52:14;18.10;99.90
14277;DHT22;7222;57.346;12.150;2023-05-06T15:54:42;16.60;99.90
14277;DHT22;7222;57.346;12.150;2023-05-06T15:57:09;17.80;1.00
14277;DHT22;7222;57.346;12.150;2023-05-06T15:59:36;18.20;99.90
14277;DHT22;7222;57.346;12.150;2023-05-06T16:02:03;19.50;1.00
14277;DHT22;7222;57.346;12.150;2023-05-06T16:04:29;18.60;99.90